createdAt,value
2023-05-05T00:00:34.682Z,14.24
2023-05-05T00:03:19.261Z,14.17
2023-05-05T00:05:52.074Z,14.13
2023-05-05T00:08:24.598Z,14.05
2023-05-05T00:10:57.691Z,13.89
2023-05-05T00:13:29.735Z,13.82
2023-05-05T00:16:01.540Z,13.79
2023-05-05T00:18:33.870Z,13.81
2023-05-05T00:21:05.825Z,13.78
2023-05-05T00:23:37.536Z,13.73
2023-05-05T00:26:09.335Z,13.76
2023-05-05T00:28:41.174Z,13.77
2023-05-05T00:31:12.967Z,13.75
2023-05-05T00:33:45.089Z,13.77
2023-05-05T00:36:17.320Z,13.74
2023-05-05T00:38:49.063Z,13.66
2023-05-05T00:41:20.810Z,13.63
2023-05-05T00:43:52.701Z,13.51
2023-05-05T00:46:27.672Z,13.42
2023-05-05T00:49:00.685Z,13.26
2023-05-05T00:51:32.784Z,13.25
2023-05-05T00:54:06.427Z,13.24
2023-05-05T00:56:38.434Z,13.17
2023-05-05T00:59:10.194Z,13.15
2023-05-05T01:01:42.165Z,13.15
2023-05-05T01:04:13.971Z,13.15
2023-05-05T01:06:55.305Z,13.12
2023-05-05T01:09:40.032Z,13.07
2023-05-05T01:12:22.773Z,13.09
2023-05-05T01:15:02.392Z,13.04
2023-05-05T01:17:41.826Z,13.00
2023-05-05T01:20:22.639Z,13.02
2023-05-05T01:23:00.530Z,13.03
2023-05-05T01:26:08.738Z,12.96
2023-05-05T01:28:59.254Z,12.86
2023-05-05T01:31:51.687Z,12.87
2023-05-05T01:34:28.578Z,12.86
2023-05-05T01:37:11.041Z,12.78
2023-05-05T01:39:44.634Z,12.58
2023-05-05T01:42:18.647Z,12.60
2023-05-05T01:44:53.294Z,12.64
2023-05-05T01:47:25.894Z,12.63
2023-05-05T01:49:57.705Z,12.62
2023-05-05T01:52:31.056Z,12.65
2023-05-05T01:55:04.305Z,12.69
2023-05-05T01:57:38.177Z,12.70
2023-05-05T02:00:13.045Z,12.72
2023-05-05T02:02:51.604Z,12.73
2023-05-05T02:05:27.024Z,12.66
2023-05-05T02:08:01.665Z,12.48
2023-05-05T02:10:35.318Z,12.34
2023-05-05T02:13:06.196Z,12.22
2023-05-05T02:15:40.391Z,12.12
2023-05-05T02:18:13.255Z,11.96
2023-05-05T02:20:46.681Z,12.01
2023-05-05T02:23:18.740Z,12.03
2023-05-05T02:25:54.631Z,12.02
2023-05-05T02:28:34.472Z,12.03
2023-05-05T02:31:09.714Z,12.01
2023-05-05T02:33:44.092Z,12.03
2023-05-05T02:36:20.234Z,12.03
2023-05-05T02:39:00.174Z,12.06
2023-05-05T02:41:34.250Z,12.02
2023-05-05T02:44:10.558Z,11.99
2023-05-05T02:46:43.641Z,11.95
2023-05-05T02:49:16.005Z,11.92
2023-05-05T02:51:48.045Z,11.91
2023-05-05T02:54:25.623Z,11.85
2023-05-05T02:57:00.500Z,11.85
2023-05-05T02:59:47.125Z,11.82
2023-05-05T03:02:25.586Z,11.71
2023-05-05T03:05:01.803Z,11.68
2023-05-05T03:07:41.763Z,11.72
2023-05-05T03:10:17.730Z,11.74
2023-05-05T03:12:55.947Z,11.72
2023-05-05T03:15:37.336Z,11.73
2023-05-05T03:18:12.534Z,11.72
2023-05-05T03:20:46.588Z,11.67
2023-05-05T03:23:21.005Z,11.66
2023-05-05T03:25:53.504Z,11.66
2023-05-05T03:28:45.994Z,11.62
2023-05-05T03:31:24.726Z,11.58
2023-05-05T03:33:59.727Z,11.62
2023-05-05T03:36:34.303Z,11.66
2023-05-05T03:39:06.394Z,11.66
2023-05-05T03:41:38.411Z,11.67
2023-05-05T03:44:10.681Z,11.62
2023-05-05T03:46:42.522Z,11.64
2023-05-05T03:49:16.354Z,11.63
2023-05-05T03:51:48.422Z,11.62
2023-05-05T03:54:20.773Z,11.56
2023-05-05T03:56:52.629Z,11.55
2023-05-05T03:59:24.505Z,11.56
2023-05-05T04:01:57.754Z,11.58
2023-05-05T04:04:29.595Z,11.65
2023-05-05T04:07:01.653Z,11.67
2023-05-05T04:09:34.929Z,11.66
2023-05-05T04:12:07.605Z,11.59
2023-05-05T04:14:37.989Z,11.57
2023-05-05T04:17:10.584Z,11.56
2023-05-05T04:19:41.545Z,11.53
2023-05-05T04:22:13.634Z,11.60
2023-05-05T04:24:45.428Z,11.62
2023-05-05T04:27:17.508Z,11.62
2023-05-05T04:29:49.713Z,11.66
2023-05-05T04:32:21.586Z,11.74
2023-05-05T04:34:54.303Z,11.73
2023-05-05T04:37:26.990Z,11.69
2023-05-05T04:39:59.058Z,11.63
2023-05-05T04:42:31.695Z,11.57
2023-05-05T04:45:03.526Z,11.58
2023-05-05T04:47:39.758Z,11.53
2023-05-05T04:50:13.731Z,11.52
2023-05-05T04:52:45.564Z,11.62
2023-05-05T04:55:17.539Z,11.62
2023-05-05T04:57:49.291Z,11.54
2023-05-05T05:00:21.808Z,11.63
2023-05-05T05:02:53.829Z,11.73
2023-05-05T05:05:26.158Z,11.72
2023-05-05T05:07:58.269Z,11.69
2023-05-05T05:10:30.394Z,11.71
2023-05-05T05:13:02.166Z,11.80
2023-05-05T05:15:34.119Z,11.82
2023-05-05T05:18:06.564Z,11.83
2023-05-05T05:20:38.385Z,11.81
2023-05-05T05:23:10.791Z,11.84
2023-05-05T05:25:47.017Z,11.86
2023-05-05T05:28:19.837Z,11.67
2023-05-05T05:30:55.220Z,11.66
2023-05-05T05:33:27.159Z,11.72
2023-05-05T05:35:59.630Z,11.79
2023-05-05T05:38:31.817Z,11.81
2023-05-05T05:41:08.735Z,11.76
2023-05-05T05:43:41.576Z,11.91
2023-05-05T05:46:13.813Z,11.94
2023-05-05T05:48:46.546Z,12.05
2023-05-05T05:51:18.716Z,12.09
2023-05-05T05:53:51.874Z,12.14
2023-05-05T05:56:23.950Z,12.12
2023-05-05T05:58:56.471Z,12.15
2023-05-05T06:01:28.385Z,12.20
2023-05-05T06:04:00.457Z,12.21
2023-05-05T06:06:32.484Z,12.27
2023-05-05T06:09:06.000Z,12.24
2023-05-05T06:11:38.233Z,12.35
2023-05-05T06:14:10.859Z,12.40
2023-05-05T06:16:41.877Z,12.46
2023-05-05T06:19:15.538Z,12.49
2023-05-05T06:21:46.824Z,12.52
2023-05-05T06:24:18.799Z,12.37
2023-05-05T06:26:50.892Z,12.48
2023-05-05T06:29:22.776Z,12.54
2023-05-05T06:31:54.643Z,12.57
2023-05-05T06:34:26.932Z,12.65
2023-05-05T06:36:58.984Z,12.78
2023-05-05T06:39:31.325Z,12.74
2023-05-05T06:42:04.040Z,12.76
2023-05-05T06:44:36.383Z,12.75
2023-05-05T06:47:08.786Z,12.78
2023-05-05T06:49:40.632Z,12.80
2023-05-05T06:52:12.628Z,12.89
2023-05-05T06:54:45.950Z,12.87
2023-05-05T06:57:17.778Z,12.91
2023-05-05T06:59:49.527Z,13.00
2023-05-05T07:02:21.377Z,13.06
2023-05-05T07:04:55.363Z,13.19
2023-05-05T07:07:27.534Z,13.34
2023-05-05T07:09:59.387Z,13.44
2023-05-05T07:12:32.236Z,13.40
2023-05-05T07:15:12.273Z,13.42
2023-05-05T07:17:51.349Z,13.53
2023-05-05T07:20:23.426Z,13.57
2023-05-05T07:22:55.236Z,13.68
2023-05-05T07:25:27.189Z,13.79
2023-05-05T07:27:59.350Z,13.85
2023-05-05T07:30:31.312Z,13.90
2023-05-05T07:33:04.734Z,13.93
2023-05-05T07:35:36.645Z,13.81
2023-05-05T07:38:10.771Z,13.73
2023-05-05T07:40:43.182Z,13.72
2023-05-05T07:43:15.071Z,13.79
2023-05-05T07:45:47.221Z,13.84
2023-05-05T07:48:19.091Z,13.83
2023-05-05T07:50:52.406Z,13.90
2023-05-05T07:53:24.565Z,14.01
2023-05-05T07:55:56.982Z,14.01
2023-05-05T07:58:28.810Z,14.04
2023-05-05T08:01:01.321Z,14.12
2023-05-05T08:03:33.332Z,14.16
2023-05-05T08:06:09.840Z,14.08
2023-05-05T08:08:41.997Z,14.04
2023-05-05T08:11:13.797Z,14.03
2023-05-05T08:13:45.820Z,13.99
2023-05-05T08:16:18.904Z,14.05
2023-05-05T08:18:51.179Z,14.21
2023-05-05T08:21:23.486Z,14.25
2023-05-05T08:23:55.316Z,14.39
2023-05-05T08:26:27.191Z,14.44
2023-05-05T08:29:00.818Z,14.39
2023-05-05T08:31:36.772Z,14.37
2023-05-05T08:34:08.582Z,14.37
2023-05-05T08:36:40.479Z,14.38
2023-05-05T08:39:12.382Z,14.49
2023-05-05T08:41:44.497Z,14.62
2023-05-05T08:44:16.296Z,14.69
2023-05-05T08:46:49.999Z,14.70
2023-05-05T08:49:22.976Z,14.72
2023-05-05T08:51:55.143Z,14.79
2023-05-05T08:54:31.900Z,14.95
2023-05-05T08:57:09.099Z,15.07
2023-05-05T08:59:42.036Z,15.02
2023-05-05T09:02:15.479Z,15.05
2023-05-05T09:04:47.350Z,15.22
2023-05-05T09:07:19.703Z,15.32
2023-05-05T09:09:51.935Z,15.41
2023-05-05T09:12:24.281Z,15.55
2023-05-05T09:14:57.894Z,15.52
2023-05-05T09:17:33.487Z,15.65
2023-05-05T09:20:07.683Z,15.59
2023-05-05T09:22:41.403Z,15.67
2023-05-05T09:25:15.061Z,15.80
2023-05-05T09:27:48.484Z,15.83
2023-05-05T09:30:27.012Z,15.88
2023-05-05T09:32:58.985Z,15.89
2023-05-05T09:35:48.227Z,15.88
2023-05-05T09:38:20.564Z,15.89
2023-05-05T09:40:54.323Z,16.02
2023-05-05T09:43:26.630Z,16.17
2023-05-05T09:46:08.550Z,16.30
2023-05-05T09:48:40.457Z,16.32
2023-05-05T09:51:12.258Z,16.41
2023-05-05T09:53:45.044Z,16.34
2023-05-05T09:56:16.749Z,16.38
2023-05-05T09:58:48.674Z,16.43
2023-05-05T10:01:25.965Z,16.61
2023-05-05T10:03:57.732Z,16.66
2023-05-05T10:06:44.341Z,16.79
2023-05-05T10:09:16.249Z,16.88
2023-05-05T10:11:57.022Z,17.09
2023-05-05T10:14:32.844Z,17.27
2023-05-05T10:17:07.076Z,17.34
2023-05-05T10:19:40.400Z,17.35
2023-05-05T10:22:12.664Z,17.43
2023-05-05T10:24:48.574Z,17.56
2023-05-05T10:27:24.129Z,17.76
2023-05-05T10:30:04.530Z,17.90
2023-05-05T10:35:24.528Z,18.07
2023-05-05T10:37:57.678Z,18.18
2023-05-05T10:40:31.620Z,18.26
2023-05-05T10:43:03.615Z,18.38
2023-05-05T10:45:35.754Z,18.52
2023-05-05T10:48:15.673Z,18.62
2023-05-05T10:50:54.440Z,18.66
2023-05-05T10:53:30.002Z,18.58
2023-05-05T10:56:10.475Z,18.64
2023-05-05T10:58:55.453Z,18.57
2023-05-05T11:01:35.447Z,18.60
2023-05-05T11:04:21.623Z,18.85
2023-05-05T11:07:27.417Z,18.98
2023-05-05T11:10:01.645Z,19.10
2023-05-05T11:12:47.496Z,19.25
2023-05-05T11:15:38.744Z,19.19
2023-05-05T11:18:28.791Z,19.06
2023-05-05T11:21:21.113Z,18.97
2023-05-05T11:23:54.142Z,19.12
2023-05-05T11:26:52.353Z,19.27
2023-05-05T11:29:26.238Z,19.25
2023-05-05T11:32:15.674Z,19.32
2023-05-05T11:34:53.778Z,19.46
2023-05-05T11:37:28.141Z,19.59
2023-05-05T11:40:14.611Z,19.78
2023-05-05T11:42:46.836Z,19.78
2023-05-05T11:45:25.777Z,19.89
2023-05-05T11:48:27.887Z,20.05
2023-05-05T11:51:03.633Z,20.07
2023-05-05T11:53:36.764Z,20.13
2023-05-05T11:56:12.648Z,20.09
2023-05-05T11:58:45.244Z,20.16
2023-05-05T12:01:17.523Z,20.12
2023-05-05T12:03:49.531Z,20.17
2023-05-05T12:06:21.589Z,20.25
2023-05-05T12:08:53.836Z,20.28
2023-05-05T12:11:25.857Z,20.30
2023-05-05T12:14:11.435Z,20.15
2023-05-05T12:16:54.567Z,20.00
2023-05-05T12:19:30.113Z,19.52
2023-05-05T12:22:02.432Z,19.43
2023-05-05T12:24:34.450Z,19.62
2023-05-05T12:27:12.140Z,19.72
2023-05-05T12:29:44.028Z,19.70
2023-05-05T12:32:24.258Z,19.85
2023-05-05T12:34:57.365Z,19.95
2023-05-05T12:37:29.754Z,19.85
2023-05-05T12:40:01.632Z,19.95
2023-05-05T12:42:38.646Z,19.95
2023-05-05T12:45:19.024Z,19.92
2023-05-05T12:47:50.854Z,19.97
2023-05-05T12:50:33.341Z,19.97
2023-05-05T12:53:05.559Z,20.04
2023-05-05T12:55:41.278Z,19.96
2023-05-05T12:58:13.429Z,19.86
2023-05-05T13:00:48.142Z,19.92
2023-05-05T13:03:23.717Z,19.97
2023-05-05T13:05:55.638Z,20.13
2023-05-05T13:08:44.588Z,20.05
2023-05-05T13:11:16.570Z,19.90
2023-05-05T13:13:48.335Z,19.90
2023-05-05T13:16:20.201Z,19.88
2023-05-05T13:18:53.612Z,19.79
2023-05-05T13:21:25.322Z,19.82
2023-05-05T13:24:08.305Z,19.92
2023-05-05T13:26:49.565Z,20.14
2023-05-05T13:29:21.505Z,20.25
2023-05-05T13:31:53.206Z,20.29
2023-05-05T13:34:24.942Z,20.33
2023-05-05T13:36:56.994Z,20.46
2023-05-05T13:39:28.788Z,20.51
2023-05-05T13:42:00.608Z,20.60
2023-05-05T13:44:33.112Z,20.41
2023-05-05T13:47:05.653Z,20.45
2023-05-05T13:49:37.676Z,20.44
2023-05-05T13:52:09.476Z,20.33
2023-05-05T13:54:41.988Z,20.23
2023-05-05T13:57:12.308Z,20.30
2023-05-05T13:59:44.792Z,20.17
2023-05-05T14:02:16.541Z,20.00
2023-05-05T14:04:48.404Z,19.99
2023-05-05T14:07:21.385Z,19.89
2023-05-05T14:09:53.160Z,19.78
2023-05-05T14:12:24.923Z,19.79
2023-05-05T14:14:56.912Z,19.58
2023-05-05T14:17:29.006Z,19.51
2023-05-05T14:20:01.268Z,19.46
2023-05-05T14:22:34.197Z,19.55
2023-05-05T14:25:07.340Z,19.70
2023-05-05T14:27:39.676Z,19.55
2023-05-05T14:30:12.937Z,19.48
2023-05-05T14:32:44.838Z,19.37
2023-05-05T14:35:16.676Z,19.45
2023-05-05T14:37:48.431Z,19.31
2023-05-05T14:40:20.431Z,19.46
2023-05-05T14:42:52.159Z,19.71
2023-05-05T14:45:23.993Z,20.02
2023-05-05T14:47:56.172Z,20.36
2023-05-05T14:50:27.977Z,20.52
2023-05-05T14:52:59.682Z,20.61
2023-05-05T14:55:31.552Z,20.58
2023-05-05T14:58:03.218Z,20.37
2023-05-05T15:00:34.949Z,20.15
2023-05-05T15:03:06.942Z,19.96
2023-05-05T15:05:38.798Z,20.07
2023-05-05T15:08:10.597Z,20.42
2023-05-05T15:10:42.347Z,20.50
2023-05-05T15:13:14.584Z,20.37
2023-05-05T15:15:46.511Z,20.12
2023-05-05T15:18:18.378Z,20.00
2023-05-05T15:20:50.275Z,20.08
2023-05-05T15:23:23.077Z,20.13
2023-05-05T15:25:53.366Z,19.85
2023-05-05T15:28:25.528Z,20.04
2023-05-05T15:30:57.582Z,19.97
2023-05-05T15:33:30.251Z,19.91
2023-05-05T15:36:02.372Z,20.01
2023-05-05T15:38:34.389Z,19.99
2023-05-05T15:41:09.035Z,20.40
2023-05-05T15:43:41.285Z,20.61
2023-05-05T15:46:13.613Z,20.26
2023-05-05T15:48:45.646Z,20.15
2023-05-05T15:51:18.807Z,20.15
2023-05-05T15:53:52.245Z,20.11
2023-05-05T15:56:27.481Z,19.92
2023-05-05T15:59:03.245Z,19.93
2023-05-05T16:01:36.381Z,19.98
2023-05-05T16:04:09.049Z,19.65
2023-05-05T16:06:41.162Z,19.33
2023-05-05T16:09:13.660Z,19.12
2023-05-05T16:11:45.849Z,18.92
2023-05-05T16:14:17.537Z,19.18
2023-05-05T16:16:49.484Z,19.41
2023-05-05T16:19:23.884Z,19.45
2023-05-05T16:21:56.449Z,19.61
2023-05-05T16:24:27.044Z,19.66
2023-05-05T16:26:58.928Z,19.73
2023-05-05T16:29:31.523Z,19.66
2023-05-05T16:32:04.801Z,19.31
2023-05-05T16:34:36.715Z,19.15
2023-05-05T16:37:09.005Z,19.10
2023-05-05T16:39:41.497Z,18.95
2023-05-05T16:42:13.778Z,18.71
2023-05-05T16:44:45.998Z,18.70
2023-05-05T16:47:18.935Z,18.52
2023-05-05T16:49:52.554Z,18.26
2023-05-05T16:52:24.653Z,17.98
2023-05-05T16:54:56.740Z,17.98
2023-05-05T16:57:28.775Z,17.72
2023-05-05T17:00:00.946Z,17.65
2023-05-05T17:02:33.236Z,17.64
2023-05-05T17:05:05.765Z,17.53
2023-05-05T17:07:37.588Z,17.44
2023-05-05T17:10:11.719Z,17.41
2023-05-05T17:12:43.614Z,17.38
2023-05-05T17:15:15.996Z,17.39
2023-05-05T17:17:48.779Z,17.31
2023-05-05T17:20:20.709Z,17.27
2023-05-05T17:22:52.948Z,17.21
2023-05-05T17:25:26.189Z,17.06
2023-05-05T17:27:58.414Z,17.03
2023-05-05T17:30:30.214Z,16.98
2023-05-05T17:33:01.937Z,16.90
2023-05-05T17:35:34.102Z,16.65
2023-05-05T17:38:05.846Z,16.59
2023-05-05T17:40:37.507Z,16.47
2023-05-05T17:43:09.276Z,16.40
2023-05-05T17:45:42.324Z,16.31
2023-05-05T17:48:14.163Z,16.18
2023-05-05T17:50:47.794Z,16.04
2023-05-05T17:53:19.782Z,16.07
2023-05-05T17:55:51.507Z,16.03
2023-05-05T17:58:23.190Z,15.99
2023-05-05T18:00:54.925Z,15.86
2023-05-05T18:03:26.911Z,15.72
2023-05-05T18:05:58.733Z,15.70
2023-05-05T18:08:30.812Z,15.63
2023-05-05T18:11:02.800Z,15.56
2023-05-05T18:13:34.753Z,15.55
2023-05-05T18:16:07.119Z,15.42
2023-05-05T18:18:40.587Z,15.37
2023-05-05T18:21:13.000Z,15.30
2023-05-05T18:23:44.723Z,15.34
2023-05-05T18:26:17.392Z,15.21
2023-05-05T18:28:49.121Z,15.20
2023-05-05T18:31:21.809Z,15.18
2023-05-05T18:33:53.706Z,15.03
2023-05-05T18:36:27.620Z,15.01
2023-05-05T18:39:00.133Z,14.94
2023-05-05T18:41:32.345Z,14.90
2023-05-05T18:44:04.155Z,14.86
2023-05-05T18:46:36.125Z,14.82
2023-05-05T18:49:08.369Z,14.78
2023-05-05T18:51:40.204Z,14.76
2023-05-05T18:54:12.113Z,14.74
2023-05-05T18:56:44.007Z,14.74
2023-05-05T18:59:15.833Z,14.63
2023-05-05T19:01:47.541Z,14.49
2023-05-05T19:04:30.860Z,14.56
2023-05-05T19:07:03.591Z,14.55
2023-05-05T19:09:36.057Z,14.46
2023-05-05T19:12:08.411Z,14.46
2023-05-05T19:14:40.455Z,14.40
2023-05-05T19:17:12.208Z,14.44
2023-05-05T19:19:44.106Z,14.45
2023-05-05T19:22:17.192Z,14.32
2023-05-05T19:24:49.315Z,14.19
2023-05-05T19:27:22.129Z,14.17
2023-05-05T19:29:52.619Z,14.15
2023-05-05T19:32:24.864Z,14.09
2023-05-05T19:34:56.971Z,14.05
2023-05-05T19:37:29.132Z,14.01
2023-05-05T19:40:00.949Z,13.91
2023-05-05T19:42:32.692Z,13.96
2023-05-05T19:45:05.615Z,13.89
2023-05-05T19:47:37.509Z,13.93
2023-05-05T19:50:11.120Z,13.88
2023-05-05T19:52:43.059Z,13.91
2023-05-05T19:55:14.771Z,13.81
2023-05-05T19:57:46.601Z,13.78
2023-05-05T20:00:19.853Z,13.78
2023-05-05T20:02:51.885Z,13.85
2023-05-05T20:05:23.995Z,13.81
2023-05-05T20:07:55.755Z,13.63
2023-05-05T20:10:27.683Z,13.67
2023-05-05T20:12:59.856Z,13.63
2023-05-05T20:15:32.724Z,13.64
2023-05-05T20:18:05.426Z,13.48
2023-05-05T20:20:37.206Z,13.53
2023-05-05T20:23:09.120Z,13.39
2023-05-05T20:25:41.303Z,13.36
2023-05-05T20:28:12.989Z,13.43
2023-05-05T20:30:44.694Z,13.41
2023-05-05T20:33:16.593Z,13.37
2023-05-05T20:35:48.365Z,13.40
2023-05-05T20:38:20.100Z,13.34
2023-05-05T20:40:52.047Z,13.39
2023-05-05T20:43:24.020Z,13.37
2023-05-05T20:45:55.966Z,13.39
2023-05-05T20:48:27.683Z,13.29
2023-05-05T20:50:59.869Z,13.29
2023-05-05T20:53:31.740Z,13.32
2023-05-05T20:56:03.838Z,13.32
2023-05-05T20:58:36.589Z,13.29
2023-05-05T21:01:08.271Z,13.25
2023-05-05T21:03:40.071Z,13.24
2023-05-05T21:06:11.967Z,13.24
2023-05-05T21:08:44.092Z,13.16
2023-05-05T21:11:15.798Z,13.15
2023-05-05T21:13:47.552Z,13.14
2023-05-05T21:16:19.292Z,12.99
2023-05-05T21:18:51.001Z,12.95
2023-05-05T21:21:23.744Z,12.98
2023-05-05T21:23:55.820Z,12.96
2023-05-05T21:26:27.818Z,12.96
2023-05-05T21:28:59.593Z,12.96
2023-05-05T21:31:31.554Z,12.90
2023-05-05T21:34:02.546Z,12.83
2023-05-05T21:36:34.654Z,12.81
2023-05-05T21:39:06.633Z,12.76
2023-05-05T21:41:38.837Z,12.74
2023-05-05T21:44:10.684Z,12.70
2023-05-05T21:46:42.664Z,12.69
2023-05-05T21:49:18.715Z,12.65
2023-05-05T21:51:51.109Z,12.60
2023-05-05T21:54:22.940Z,12.57
2023-05-05T21:56:54.790Z,12.45
2023-05-05T21:59:26.553Z,12.41
2023-05-05T22:01:58.387Z,12.28
2023-05-05T22:04:30.246Z,12.17
2023-05-05T22:07:02.089Z,12.09
2023-05-05T22:09:33.943Z,12.08
2023-05-05T22:12:06.156Z,12.02
2023-05-05T22:14:38.112Z,12.02
2023-05-05T22:17:09.871Z,11.95
2023-05-05T22:19:41.728Z,11.99
2023-05-05T22:22:13.485Z,11.93
2023-05-05T22:24:45.256Z,11.90
2023-05-05T22:27:16.917Z,11.84
2023-05-05T22:29:48.617Z,11.79
2023-05-05T22:32:21.137Z,11.83
2023-05-05T22:34:52.972Z,11.76
2023-05-05T22:37:25.015Z,11.79
2023-05-05T22:39:56.661Z,11.83
2023-05-05T22:42:29.630Z,11.84
2023-05-05T22:45:01.319Z,11.83
2023-05-05T22:47:33.162Z,11.77
2023-05-05T22:50:05.139Z,11.71
2023-05-05T22:52:36.869Z,11.71
2023-05-05T22:55:09.842Z,11.61
2023-05-05T22:57:42.248Z,11.55
2023-05-05T23:00:14.662Z,11.59
2023-05-05T23:02:46.489Z,11.58
2023-05-05T23:05:18.408Z,11.61
2023-05-05T23:07:50.178Z,11.52
2023-05-05T23:10:22.070Z,11.46
2023-05-05T23:12:54.232Z,11.45
2023-05-05T23:15:25.971Z,11.51
2023-05-05T23:17:58.223Z,11.53
2023-05-05T23:20:30.041Z,11.54
2023-05-05T23:23:01.932Z,11.54
2023-05-05T23:25:33.830Z,11.59
2023-05-05T23:28:05.997Z,11.59
2023-05-05T23:30:38.171Z,11.55
2023-05-05T23:33:10.287Z,11.51
2023-05-05T23:35:43.504Z,11.54
2023-05-05T23:38:16.130Z,11.46
2023-05-05T23:40:47.788Z,11.38
2023-05-05T23:43:19.559Z,11.34
2023-05-05T23:45:51.593Z,11.39
2023-05-05T23:48:23.440Z,11.44
2023-05-05T23:50:55.920Z,11.46
2023-05-05T23:53:27.620Z,11.53
2023-05-05T23:55:59.827Z,11.56
2023-05-05T23:58:31.554Z,11.52
